Time;durP1;ratioP1;P1;durP2;ratioP2;P2;SDS_P1;SDS_P2;PMS_P1;PMS_P2;Temp;Humidity;BMP_temperature;BMP_pressure;BME280_temperature;BME280_humidity;BME280_pressure;Samples;Min_cycle;Max_cycle;Signal;HPM_P1;HPM_P2
2021/10/02 00:33:28;;;;;;;14.77;5.90;;;;;;;;;;5017104;28;20054;-70
2021/10/02 00:37:37;;;;;;;10.77;5.80;;;;;;;;;;5037702;28;20058;-70
2021/10/02 00:45:33;;;;;;;11.90;6.00;;;;;;;;;;5019299;28;20058;-70
2021/10/02 00:47:59;;;;;;;12.98;6.32;;;;;;;;;;5027137;28;20167;-70
2021/10/02 00:50:26;;;;;;;12.15;5.82;;;;;;;;;;5023804;28;20200;-70
2021/10/02 00:52:52;;;;;;;8.27;5.20;;;;;;;;;;5024116;28;20041;-70
2021/10/02 00:55:18;;;;;;;13.98;5.55;;;;;;;;;;5020648;28;20128;-70
2021/10/02 00:57:45;;;;;;;12.73;5.72;;;;;;;;;;5025845;28;20351;-70
2021/10/02 01:00:11;;;;;;;12.70;6.78;;;;;;;;;;5026602;28;20042;-70
2021/10/02 01:02:37;;;;;;;12.90;6.60;;;;;;;;;;5006228;28;20121;-70
2021/10/02 01:05:12;;;;;;;10.82;6.28;;;;;;;;;;5028926;28;20083;-70
2021/10/02 01:07:38;;;;;;;9.88;5.43;;;;;;;;;;5010140;28;20053;-70
2021/10/02 01:10:08;;;;;;;12.25;5.68;;;;;;;;;;5009811;28;20045;-70
2021/10/02 01:12:35;;;;;;;11.40;5.78;;;;;;;;;;5004976;28;20085;-70
2021/10/02 01:15:05;;;;;;;12.25;6.93;;;;;;;;;;5002848;28;20111;-70
2021/10/02 01:17:41;;;;;;;9.30;6.03;;;;;;;;;;5018297;28;20120;-70
2021/10/02 01:20:09;;;;;;;11.52;5.93;;;;;;;;;;5021991;28;20099;-70
2021/10/02 01:22:46;;;;;;;12.02;6.25;;;;;;;;;;4995133;28;20081;-71
2021/10/02 01:25:20;;;;;;;11.90;5.80;;;;;;;;;;5016376;28;20053;-70
2021/10/02 01:28:08;;;;;;;12.10;6.03;;;;;;;;;;5003537;28;20071;-70
2021/10/02 01:33:36;;;;;;;15.35;5.63;;;;;;;;;;5015986;28;20058;-70
2021/10/02 01:36:19;;;;;;;12.10;5.93;;;;;;;;;;5003972;28;20040;-70
2021/10/02 01:49:39;;;;;;;11.30;7.82;;;;;;;;;;5013091;28;20069;-70
2021/10/02 01:52:05;;;;;;;15.90;8.52;;;;;;;;;;5006296;28;20095;-70
2021/10/02 01:54:32;;;;;;;14.75;7.22;;;;;;;;;;5027550;28;20041;-70
2021/10/02 01:56:59;;;;;;;15.68;7.85;;;;;;;;;;5025624;28;20067;-70
2021/10/02 01:59:27;;;;;;;20.67;8.95;;;;;;;;;;5008243;28;20124;-70
2021/10/02 02:01:53;;;;;;;14.07;7.30;;;;;;;;;;5008795;28;20100;-70
2021/10/02 02:04:20;;;;;;;13.93;6.93;;;;;;;;;;5025918;28;20124;-70
2021/10/02 02:06:47;;;;;;;15.40;6.65;;;;;;;;;;5001258;28;20114;-70
2021/10/02 02:09:16;;;;;;;12.23;6.68;;;;;;;;;;4994805;28;20050;-70
2021/10/02 02:11:43;;;;;;;15.50;7.90;;;;;;;;;;5007008;28;20128;-70
2021/10/02 02:14:11;;;;;;;11.43;6.97;;;;;;;;;;5001448;28;20034;-71
2021/10/02 02:16:38;;;;;;;16.13;7.63;;;;;;;;;;5022623;28;20065;-70
2021/10/02 02:19:04;;;;;;;15.65;8.35;;;;;;;;;;5003946;28;20052;-70
2021/10/02 02:21:30;;;;;;;15.73;8.10;;;;;;;;;;5023117;28;20057;-70
2021/10/02 02:23:57;;;;;;;16.13;7.95;;;;;;;;;;5004506;28;20080;-70
2021/10/02 02:26:26;;;;;;;18.30;9.25;;;;;;;;;;5020204;28;20401;-71
2021/10/02 02:28:52;;;;;;;19.40;9.95;;;;;;;;;;5014614;28;22336;-70
2021/10/02 02:31:18;;;;;;;13.98;9.57;;;;;;;;;;5008816;28;20355;-70
2021/10/02 02:33:45;;;;;;;19.27;10.15;;;;;;;;;;5005114;28;20056;-70
2021/10/02 02:36:11;;;;;;;15.18;9.63;;;;;;;;;;5005267;28;20042;-70
2021/10/02 02:38:37;;;;;;;18.40;11.15;;;;;;;;;;4995332;28;20485;-70
2021/10/02 02:41:04;;;;;;;17.60;10.52;;;;;;;;;;5012664;28;20054;-70
2021/10/02 02:43:32;;;;;;;21.92;10.88;;;;;;;;;;5026033;28;20374;-70
2021/10/02 02:46:03;;;;;;;19.15;11.02;;;;;;;;;;5006887;28;20048;-70
2021/10/02 02:48:32;;;;;;;19.98;12.02;;;;;;;;;;5022863;28;20045;-70
2021/10/02 02:51:02;;;;;;;26.17;12.10;;;;;;;;;;5006600;28;20056;-70
2021/10/02 02:53:45;;;;;;;24.13;14.60;;;;;;;;;;5015444;28;20368;-70
2021/10/02 02:56:14;;;;;;;26.70;13.07;;;;;;;;;;5030006;28;20058;-70
2021/10/02 02:58:41;;;;;;;20.75;11.68;;;;;;;;;;5025166;28;20045;-70
2021/10/02 03:01:09;;;;;;;20.23;12.00;;;;;;;;;;5041791;28;20116;-70
2021/10/02 03:03:38;;;;;;;20.63;11.90;;;;;;;;;;5041064;28;20056;-70
2021/10/02 03:06:05;;;;;;;22.10;13.25;;;;;;;;;;5022690;28;20053;-70
2021/10/02 03:08:32;;;;;;;29.98;12.40;;;;;;;;;;5024176;28;20042;-70
2021/10/02 03:11:01;;;;;;;31.20;14.27;;;;;;;;;;5024603;28;20528;-70
2021/10/02 03:13:29;;;;;;;23.55;14.20;;;;;;;;;;5038778;28;20485;-70
2021/10/02 03:15:56;;;;;;;30.52;15.57;;;;;;;;;;5022903;28;20047;-71
2021/10/02 03:18:23;;;;;;;30.63;15.57;;;;;;;;;;5020514;28;20069;-70
2021/10/02 03:20:50;;;;;;;31.80;15.27;;;;;;;;;;5018809;28;20060;-70
2021/10/02 03:23:18;;;;;;;43.80;17.20;;;;;;;;;;5021813;28;20072;-71
2021/10/02 03:25:45;;;;;;;39.78;16.98;;;;;;;;;;5032451;28;20161;-70
2021/10/02 03:28:12;;;;;;;32.78;15.00;;;;;;;;;;5027491;28;20041;-71
2021/10/02 03:30:38;;;;;;;37.45;14.60;;;;;;;;;;5029165;28;20076;-71
2021/10/02 03:33:04;;;;;;;31.25;15.60;;;;;;;;;;5027183;28;20465;-70
2021/10/02 03:35:30;;;;;;;34.13;15.43;;;;;;;;;;5026925;28;20033;-71
2021/10/02 03:37:57;;;;;;;27.98;14.88;;;;;;;;;;5042139;28;20041;-71
2021/10/02 03:40:24;;;;;;;40.70;16.25;;;;;;;;;;5030006;28;20037;-71
2021/10/02 03:42:52;;;;;;;23.58;13.27;;;;;;;;;;5036625;28;20107;-71
2021/10/02 03:45:20;;;;;;;23.17;11.40;;;;;;;;;;5019942;28;20098;-71
2021/10/02 03:47:46;;;;;;;25.52;12.60;;;;;;;;;;5024192;28;20038;-71
2021/10/02 03:50:12;;;;;;;26.98;11.82;;;;;;;;;;5022852;28;20354;-71
2021/10/02 03:52:39;;;;;;;32.10;12.77;;;;;;;;;;5028605;28;20038;-71
2021/10/02 03:55:06;;;;;;;25.17;10.82;;;;;;;;;;5038165;28;20539;-71
2021/10/02 03:57:32;;;;;;;30.30;10.68;;;;;;;;;;5017214;28;20069;-70
2021/10/02 03:59:58;;;;;;;26.67;10.15;;;;;;;;;;5019382;28;20107;-71
2021/10/02 04:02:24;;;;;;;19.65;10.27;;;;;;;;;;5038868;28;20049;-70
2021/10/02 04:04:51;;;;;;;25.02;10.00;;;;;;;;;;5024191;28;20054;-70
2021/10/02 04:07:17;;;;;;;23.15;8.90;;;;;;;;;;5027489;28;20084;-70
2021/10/02 04:09:43;;;;;;;18.42;8.38;;;;;;;;;;5030037;28;20049;-70
2021/10/02 04:12:09;;;;;;;17.80;8.32;;;;;;;;;;5026509;28;20121;-71
2021/10/02 04:14:35;;;;;;;22.25;7.72;;;;;;;;;;5026310;28;20050;-70
2021/10/02 04:17:02;;;;;;;19.23;6.90;;;;;;;;;;5021714;28;20049;-70
2021/10/02 04:19:28;;;;;;;18.42;7.18;;;;;;;;;;5019254;28;20417;-70
2021/10/02 04:21:54;;;;;;;16.67;7.60;;;;;;;;;;5017518;28;20797;-71
2021/10/02 04:24:22;;;;;;;13.90;6.80;;;;;;;;;;5038475;28;21642;-71
2021/10/02 04:26:48;;;;;;;14.98;6.65;;;;;;;;;;5025471;28;20462;-71
2021/10/02 04:29:15;;;;;;;16.65;6.10;;;;;;;;;;5024185;28;20470;-71
2021/10/02 04:31:41;;;;;;;15.15;5.65;;;;;;;;;;5024320;28;20088;-71
2021/10/02 04:34:07;;;;;;;11.70;6.15;;;;;;;;;;5020045;28;20490;-71
2021/10/02 04:36:34;;;;;;;14.02;6.75;;;;;;;;;;5020224;28;20045;-70
2021/10/02 04:39:00;;;;;;;12.45;6.05;;;;;;;;;;5018045;28;20046;-70
2021/10/02 04:41:27;;;;;;;13.95;6.80;;;;;;;;;;5025844;28;20152;-70
2021/10/02 04:43:53;;;;;;;15.13;6.20;;;;;;;;;;5025692;28;20068;-70
2021/10/02 04:46:20;;;;;;;18.55;6.50;;;;;;;;;;5023764;28;20365;-71
2021/10/02 04:48:47;;;;;;;13.05;6.70;;;;;;;;;;5023759;28;20053;-70
2021/10/02 04:51:13;;;;;;;13.82;6.40;;;;;;;;;;5020269;28;20049;-71
2021/10/02 04:53:39;;;;;;;13.02;6.18;;;;;;;;;;5020505;28;20111;-71
2021/10/02 04:56:08;;;;;;;11.90;5.68;;;;;;;;;;5020102;28;20060;-71
2021/10/02 04:58:34;;;;;;;12.23;5.75;;;;;;;;;;5021554;28;20061;-71
2021/10/02 05:01:02;;;;;;;16.73;6.53;;;;;;;;;;5018058;28;20099;-70
2021/10/02 05:03:28;;;;;;;15.27;6.70;;;;;;;;;;5021391;28;20144;-71
2021/10/02 05:05:54;;;;;;;22.88;6.50;;;;;;;;;;5009989;28;20037;-70
2021/10/02 05:08:21;;;;;;;12.13;5.75;;;;;;;;;;5022782;28;20497;-71
2021/10/02 05:10:47;;;;;;;14.25;5.47;;;;;;;;;;5006469;28;21530;-70
2021/10/02 05:13:13;;;;;;;13.63;6.55;;;;;;;;;;5007889;28;20337;-70
2021/10/02 05:15:41;;;;;;;16.25;6.80;;;;;;;;;;5022912;28;20584;-70
2021/10/02 05:18:07;;;;;;;17.77;5.88;;;;;;;;;;5005156;28;20046;-70
2021/10/02 05:20:34;;;;;;;14.45;5.97;;;;;;;;;;5006937;28;20041;-70
2021/10/02 05:23:00;;;;;;;14.05;6.82;;;;;;;;;;5003838;28;20037;-72
2021/10/02 05:25:26;;;;;;;47.05;7.80;;;;;;;;;;5002893;28;20041;-71
2021/10/02 05:27:52;;;;;;;17.48;7.75;;;;;;;;;;5018628;28;20052;-78
2021/10/02 05:30:19;;;;;;;19.95;6.70;;;;;;;;;;5001814;28;20050;-70
2021/10/02 05:32:45;;;;;;;10.57;5.90;;;;;;;;;;5002579;28;20057;-70
2021/10/02 05:35:11;;;;;;;11.25;6.30;;;;;;;;;;5020032;28;20119;-70
2021/10/02 05:37:37;;;;;;;21.42;6.82;;;;;;;;;;4998361;28;21329;-70
2021/10/02 05:40:04;;;;;;;28.88;6.20;;;;;;;;;;5001551;28;20041;-70
2021/10/02 05:42:30;;;;;;;44.20;6.60;;;;;;;;;;5020719;28;20096;-70
2021/10/02 05:44:56;;;;;;;288.33;14.07;;;;;;;;;;5008829;28;20490;-71
2021/10/02 05:47:23;;;;;;;152.13;10.25;;;;;;;;;;5010728;28;20418;-71
2021/10/02 05:49:49;;;;;;;18.83;7.40;;;;;;;;;;5024888;28;20156;-71
2021/10/02 05:52:15;;;;;;;24.27;7.97;;;;;;;;;;5006451;28;20045;-70
2021/10/02 05:54:41;;;;;;;16.27;7.35;;;;;;;;;;5004888;28;20128;-71
2021/10/02 05:57:08;;;;;;;14.25;7.20;;;;;;;;;;5032682;28;20088;-70
2021/10/02 05:59:34;;;;;;;62.83;7.82;;;;;;;;;;5002932;28;20449;-71
2021/10/02 06:02:00;;;;;;;11.38;6.25;;;;;;;;;;5024790;28;20047;-70
2021/10/02 06:04:26;;;;;;;14.70;6.32;;;;;;;;;;5025643;28;20120;-70
2021/10/02 06:06:53;;;;;;;14.00;5.95;;;;;;;;;;5024204;28;20045;-70
2021/10/02 06:09:19;;;;;;;12.70;6.65;;;;;;;;;;5045380;28;20071;-71
2021/10/02 06:11:45;;;;;;;24.23;7.18;;;;;;;;;;5029205;28;20128;-70
2021/10/02 06:14:11;;;;;;;18.38;6.97;;;;;;;;;;5026276;28;20575;-70
2021/10/02 06:16:38;;;;;;;14.90;6.57;;;;;;;;;;5041569;28;20061;-70
2021/10/02 06:19:05;;;;;;;13.90;6.38;;;;;;;;;;5026718;28;20120;-68
2021/10/02 06:21:31;;;;;;;12.73;7.22;;;;;;;;;;5020187;28;20130;-68
2021/10/02 06:23:59;;;;;;;16.63;7.13;;;;;;;;;;5025382;28;20401;-70
2021/10/02 06:26:26;;;;;;;17.13;6.70;;;;;;;;;;5022018;28;20133;-68
2021/10/02 06:28:52;;;;;;;16.33;6.80;;;;;;;;;;5022455;28;20073;-69
2021/10/02 06:31:19;;;;;;;24.67;7.18;;;;;;;;;;5021350;28;20556;-69
2021/10/02 06:33:45;;;;;;;19.80;8.02;;;;;;;;;;5045477;28;20057;-69
2021/10/02 06:36:12;;;;;;;16.33;7.38;;;;;;;;;;5039788;28;20042;-69
2021/10/02 06:38:39;;;;;;;23.85;7.97;;;;;;;;;;5023797;28;20117;-69
2021/10/02 06:41:05;;;;;;;20.38;7.68;;;;;;;;;;5013118;28;20120;-69
2021/10/02 06:43:31;;;;;;;15.00;7.00;;;;;;;;;;5020254;28;20100;-69
2021/10/02 06:45:59;;;;;;;17.00;7.70;;;;;;;;;;5036688;28;20060;-69
2021/10/02 06:48:25;;;;;;;19.50;8.38;;;;;;;;;;5028298;28;20049;-69
2021/10/02 06:50:51;;;;;;;20.05;10.07;;;;;;;;;;5029266;28;20045;-69
2021/10/02 06:53:18;;;;;;;27.48;10.70;;;;;;;;;;5027121;28;20088;-69
2021/10/02 06:55:44;;;;;;;26.25;10.60;;;;;;;;;;5034347;28;20544;-69
2021/10/02 06:58:10;;;;;;;27.27;11.98;;;;;;;;;;5027807;28;20125;-69
2021/10/02 07:00:37;;;;;;;31.70;13.05;;;;;;;;;;5025763;28;20367;-69
2021/10/02 07:03:03;;;;;;;36.80;16.25;;;;;;;;;;5026790;28;20132;-72
2021/10/02 07:05:30;;;;;;;41.70;19.88;;;;;;;;;;5046174;28;20030;-77
2021/10/02 07:07:56;;;;;;;48.17;20.63;;;;;;;;;;5031850;28;20102;-71
2021/10/02 07:10:22;;;;;;;44.95;20.67;;;;;;;;;;5026520;28;20047;-72
2021/10/02 07:12:49;;;;;;;50.75;22.75;;;;;;;;;;5040652;28;20554;-72
2021/10/02 07:15:15;;;;;;;49.90;22.55;;;;;;;;;;5011842;28;20071;-71
2021/10/02 07:17:42;;;;;;;52.30;25.08;;;;;;;;;;5018883;28;20050;-71
2021/10/02 07:20:09;;;;;;;60.45;26.85;;;;;;;;;;5020856;28;20034;-71
2021/10/02 07:22:38;;;;;;;56.28;26.20;;;;;;;;;;5023372;28;20145;-71
2021/10/02 07:25:05;;;;;;;61.30;28.75;;;;;;;;;;5043586;28;20053;-71
2021/10/02 07:27:32;;;;;;;60.38;28.15;;;;;;;;;;5042709;28;20054;-71
2021/10/02 07:29:58;;;;;;;70.18;30.45;;;;;;;;;;5027131;28;20497;-71
2021/10/02 07:32:25;;;;;;;58.50;26.30;;;;;;;;;;5037570;28;20132;-72
2021/10/02 07:34:52;;;;;;;68.03;28.48;;;;;;;;;;5022157;28;20041;-72
2021/10/02 07:37:18;;;;;;;54.60;25.83;;;;;;;;;;5021095;28;20046;-71
2021/10/02 07:39:44;;;;;;;57.20;24.70;;;;;;;;;;5048530;28;20045;-72
2021/10/02 07:42:12;;;;;;;46.92;24.02;;;;;;;;;;5039729;28;20052;-71
2021/10/02 07:44:39;;;;;;;51.33;24.50;;;;;;;;;;5025983;28;20033;-72
2021/10/02 07:47:06;;;;;;;51.75;24.20;;;;;;;;;;5036938;28;20390;-72
2021/10/02 07:49:33;;;;;;;45.53;24.20;;;;;;;;;;5043542;28;20081;-72
2021/10/02 07:51:59;;;;;;;48.92;22.17;;;;;;;;;;5043227;28;20049;-75
2021/10/02 07:54:27;;;;;;;45.92;22.63;;;;;;;;;;5030648;28;20067;-72
2021/10/02 07:56:54;;;;;;;53.78;24.15;;;;;;;;;;5046654;28;20111;-72
2021/10/02 07:59:20;;;;;;;56.28;25.38;;;;;;;;;;5045876;28;20488;-72
2021/10/02 08:01:46;;;;;;;56.35;26.33;;;;;;;;;;5042007;28;20056;-72
2021/10/02 08:04:13;;;;;;;51.75;24.35;;;;;;;;;;5027131;28;20377;-72
2021/10/02 08:06:39;;;;;;;49.15;22.90;;;;;;;;;;5047104;28;20046;-71
2021/10/02 08:09:06;;;;;;;48.47;24.40;;;;;;;;;;5038899;28;20052;-72
2021/10/02 08:11:33;;;;;;;50.00;24.98;;;;;;;;;;5028298;28;20343;-72
2021/10/02 08:13:59;;;;;;;45.03;23.15;;;;;;;;;;5013854;28;20564;-72
2021/10/02 08:16:28;;;;;;;40.05;22.38;;;;;;;;;;5045849;28;20041;-72
2021/10/02 08:18:55;;;;;;;52.70;27.73;;;;;;;;;;5046020;28;20061;-72
2021/10/02 08:21:22;;;;;;;43.35;23.98;;;;;;;;;;5033318;28;20042;-72
2021/10/02 08:23:48;;;;;;;39.15;23.63;;;;;;;;;;5031764;28;20438;-72
2021/10/02 08:26:15;;;;;;;44.42;25.88;;;;;;;;;;5042315;28;20038;-72
2021/10/02 08:28:47;;;;;;;30.88;19.30;;;;;;;;;;5012812;28;20045;-72
2021/10/02 08:31:14;;;;;;;35.53;21.00;;;;;;;;;;5044050;28;20038;-70
2021/10/02 08:33:40;;;;;;;34.58;20.55;;;;;;;;;;5026167;28;20065;-70
2021/10/02 08:36:06;;;;;;;34.40;22.25;;;;;;;;;;5022569;28;20065;-71
2021/10/02 08:38:33;;;;;;;31.90;20.38;;;;;;;;;;5042195;28;20145;-71
2021/10/02 08:41:00;;;;;;;28.27;18.77;;;;;;;;;;5041836;28;20096;-70
2021/10/02 08:43:26;;;;;;;29.17;19.90;;;;;;;;;;5046306;28;20047;-70
2021/10/02 08:45:52;;;;;;;27.23;18.60;;;;;;;;;;5028376;28;20045;-70
2021/10/02 08:48:19;;;;;;;23.33;16.48;;;;;;;;;;5026634;28;20045;-70
2021/10/02 08:50:46;;;;;;;20.48;14.82;;;;;;;;;;5046477;28;20057;-71
2021/10/02 08:53:13;;;;;;;23.95;16.38;;;;;;;;;;5030665;28;20053;-70
2021/10/02 08:55:41;;;;;;;23.65;15.93;;;;;;;;;;5025934;28;20065;-70
2021/10/02 08:58:07;;;;;;;19.98;15.30;;;;;;;;;;5026251;28;20068;-70
2021/10/02 09:00:34;;;;;;;24.35;16.85;;;;;;;;;;5007872;28;20037;-70
2021/10/02 09:03:01;;;;;;;26.90;17.42;;;;;;;;;;5008366;28;20568;-70
2021/10/02 09:05:28;;;;;;;30.55;18.65;;;;;;;;;;5005422;28;20083;-70
2021/10/02 09:07:56;;;;;;;31.13;19.45;;;;;;;;;;5002474;28;20053;-70
2021/10/02 09:10:23;;;;;;;25.98;17.60;;;;;;;;;;5010645;28;20366;-70
2021/10/02 09:12:50;;;;;;;27.77;18.42;;;;;;;;;;5006952;28;20505;-70
2021/10/02 09:15:17;;;;;;;31.08;19.77;;;;;;;;;;5005654;28;20042;-70
2021/10/02 09:17:44;;;;;;;35.17;24.00;;;;;;;;;;5028352;28;20386;-70
2021/10/02 09:20:11;;;;;;;34.72;25.40;;;;;;;;;;5005861;28;20117;-70
2021/10/02 09:22:38;;;;;;;38.28;30.05;;;;;;;;;;4995962;28;20041;-70
2021/10/02 09:25:05;;;;;;;39.47;30.55;;;;;;;;;;5011413;28;20474;-70
2021/10/02 09:27:33;;;;;;;40.03;29.48;;;;;;;;;;5011112;28;20080;-70
2021/10/02 09:30:01;;;;;;;34.40;25.58;;;;;;;;;;5022804;28;20430;-70
2021/10/02 09:32:29;;;;;;;31.63;23.27;;;;;;;;;;5024947;28;20046;-70
2021/10/02 09:34:57;;;;;;;39.35;24.50;;;;;;;;;;5027063;28;20378;-70
2021/10/02 09:37:25;;;;;;;31.98;20.35;;;;;;;;;;5025210;28;20095;-70
2021/10/02 09:39:52;;;;;;;24.23;17.33;;;;;;;;;;5027097;28;20087;-70
2021/10/02 09:42:20;;;;;;;27.20;15.55;;;;;;;;;;5009243;28;20049;-69
2021/10/02 09:44:46;;;;;;;25.08;15.43;;;;;;;;;;5012846;28;20497;-70
2021/10/02 09:47:14;;;;;;;24.20;15.20;;;;;;;;;;5013256;28;20046;-70
2021/10/02 09:49:41;;;;;;;20.60;14.70;;;;;;;;;;5029168;28;20056;-70
2021/10/02 09:52:09;;;;;;;24.52;13.50;;;;;;;;;;5012069;28;20459;-70
2021/10/02 09:54:36;;;;;;;21.63;14.35;;;;;;;;;;5010468;28;20053;-70
2021/10/02 09:57:11;;;;;;;23.00;15.55;;;;;;;;;;5017096;28;20064;-70
2021/10/02 09:59:37;;;;;;;23.45;14.88;;;;;;;;;;5023724;28;20222;-70
2021/10/02 10:02:13;;;;;;;26.25;15.93;;;;;;;;;;5024394;28;20034;-71
2021/10/02 10:04:39;;;;;;;24.27;15.80;;;;;;;;;;5044147;28;20520;-70
2021/10/02 10:07:07;;;;;;;25.33;15.57;;;;;;;;;;5032054;28;20042;-71
2021/10/02 10:09:39;;;;;;;23.20;15.60;;;;;;;;;;5045110;28;20054;-71
2021/10/02 10:12:05;;;;;;;23.35;15.45;;;;;;;;;;5032174;28;20040;-71
2021/10/02 10:14:34;;;;;;;21.33;15.25;;;;;;;;;;5023404;28;20123;-70
2021/10/02 10:17:00;;;;;;;25.20;15.85;;;;;;;;;;5026622;28;20050;-69
2021/10/02 10:19:28;;;;;;;22.58;14.48;;;;;;;;;;5025590;28;20056;-70
2021/10/02 10:22:05;;;;;;;21.70;14.98;;;;;;;;;;5027315;28;20493;-69
2021/10/02 10:24:32;;;;;;;20.90;14.43;;;;;;;;;;5022839;28;20389;-69
2021/10/02 10:26:58;;;;;;;20.50;14.20;;;;;;;;;;5029911;28;20036;-70
2021/10/02 10:29:35;;;;;;;22.20;15.23;;;;;;;;;;5045927;28;20038;-70
2021/10/02 10:32:02;;;;;;;21.63;13.10;;;;;;;;;;5027523;28;20500;-72
2021/10/02 10:34:29;;;;;;;17.73;12.80;;;;;;;;;;5025894;28;20467;-70
2021/10/02 10:36:55;;;;;;;18.80;11.07;;;;;;;;;;5027227;28;20525;-71
2021/10/02 10:39:22;;;;;;;17.10;9.20;;;;;;;;;;5028265;28;20046;-71
2021/10/02 10:41:48;;;;;;;13.70;8.10;;;;;;;;;;5026782;28;20115;-72
2021/10/02 10:44:15;;;;;;;12.93;6.72;;;;;;;;;;5023238;28;20054;-72
2021/10/02 10:46:41;;;;;;;12.90;6.75;;;;;;;;;;5027976;28;20034;-71
2021/10/02 10:49:07;;;;;;;14.52;7.30;;;;;;;;;;5018057;28;20500;-82
2021/10/02 10:51:34;;;;;;;11.13;6.30;;;;;;;;;;5032759;28;20406;-72
2021/10/02 10:54:00;;;;;;;9.90;6.93;;;;;;;;;;5031900;28;20057;-72
2021/10/02 10:56:41;;;;;;;11.00;5.47;;;;;;;;;;5027140;28;20049;-72
2021/10/02 10:59:07;;;;;;;13.45;5.63;;;;;;;;;;5022727;28;20075;-73
2021/10/02 11:01:35;;;;;;;9.63;4.80;;;;;;;;;;4991905;28;20545;-73
2021/10/02 11:04:02;;;;;;;10.60;5.28;;;;;;;;;;5006834;28;20497;-73
2021/10/02 11:06:47;;;;;;;11.07;5.63;;;;;;;;;;5003157;28;20053;-77
2021/10/02 11:09:13;;;;;;;9.93;4.75;;;;;;;;;;5029358;28;20504;-69
2021/10/02 11:11:46;;;;;;;12.73;5.22;;;;;;;;;;5026086;28;20049;-68
2021/10/02 11:14:13;;;;;;;13.32;5.18;;;;;;;;;;5011035;28;20045;-69
2021/10/02 11:16:41;;;;;;;12.40;4.15;;;;;;;;;;5026155;28;20047;-69
2021/10/02 11:19:25;;;;;;;11.18;4.25;;;;;;;;;;5009605;28;20115;-69
2021/10/02 11:22:07;;;;;;;12.80;4.72;;;;;;;;;;5023740;28;20489;-68
2021/10/02 11:24:34;;;;;;;10.63;5.78;;;;;;;;;;5027892;28;20104;-68
2021/10/02 11:27:01;;;;;;;11.23;5.25;;;;;;;;;;5026612;28;20121;-69
2021/10/02 11:29:28;;;;;;;14.68;5.35;;;;;;;;;;5007365;28;20050;-69
2021/10/02 11:32:26;;;;;;;12.82;6.72;;;;;;;;;;5024208;28;20041;-68
2021/10/02 11:35:11;;;;;;;13.93;6.72;;;;;;;;;;5010183;28;20073;-69
2021/10/02 11:37:41;;;;;;;14.30;6.63;;;;;;;;;;5005922;28;20046;-68
2021/10/02 11:40:27;;;;;;;16.00;6.95;;;;;;;;;;5027250;28;20041;-69
2021/10/02 11:43:20;;;;;;;14.15;7.00;;;;;;;;;;5031655;28;20053;-68
2021/10/02 11:45:47;;;;;;;12.50;7.57;;;;;;;;;;5012466;28;20128;-70
2021/10/02 11:48:14;;;;;;;29.45;9.27;;;;;;;;;;5025812;28;20073;-71
2021/10/02 11:50:41;;;;;;;11.88;7.20;;;;;;;;;;5000291;28;20055;-68
2021/10/02 11:53:07;;;;;;;16.83;7.78;;;;;;;;;;5027111;28;20034;-68
2021/10/02 11:55:34;;;;;;;13.00;6.65;;;;;;;;;;5012129;28;20100;-69
2021/10/02 11:58:07;;;;;;;11.35;6.63;;;;;;;;;;5010870;28;20050;-68
2021/10/02 12:00:33;;;;;;;;;;;;;;;;;;5010100;28;20406;-68
2021/10/02 12:03:00;;;;;;;11.68;6.60;;;;;;;;;;5013687;28;20379;-68
2021/10/02 12:05:28;;;;;;;15.38;7.13;;;;;;;;;;5032116;28;20124;-68
2021/10/02 12:07:54;;;;;;;12.07;6.30;;;;;;;;;;5030883;28;20501;-68
2021/10/02 12:10:21;;;;;;;15.60;6.32;;;;;;;;;;5008095;28;20129;-68
2021/10/02 12:12:47;;;;;;;16.15;6.80;;;;;;;;;;5028706;28;20042;-68
2021/10/02 12:15:29;;;;;;;12.27;6.60;;;;;;;;;;5027290;28;20207;-69
2021/10/02 12:17:55;;;;;;;14.20;7.30;;;;;;;;;;5010118;28;20111;-69
2021/10/02 12:20:21;;;;;;;12.55;7.57;;;;;;;;;;5026199;28;20128;-70
2021/10/02 12:23:02;;;;;;;17.45;7.90;;;;;;;;;;5026935;28;20133;-69
2021/10/02 12:25:29;;;;;;;12.60;7.60;;;;;;;;;;5025059;28;20034;-69
2021/10/02 12:27:55;;;;;;;14.15;6.97;;;;;;;;;;5021665;28;20132;-69
2021/10/02 12:30:21;;;;;;;13.82;6.45;;;;;;;;;;5026456;28;20067;-69
2021/10/02 12:32:56;;;;;;;14.60;7.70;;;;;;;;;;5013043;28;20128;-69
2021/10/02 12:35:22;;;;;;;17.77;7.15;;;;;;;;;;5008062;28;20037;-72
2021/10/02 12:37:50;;;;;;;11.55;6.10;;;;;;;;;;5030179;28;20477;-71
2021/10/02 12:40:17;;;;;;;10.65;6.03;;;;;;;;;;5027161;28;20033;-72
2021/10/02 12:42:46;;;;;;;18.05;9.70;;;;;;;;;;5009480;28;21452;-70
2021/10/02 12:45:13;;;;;;;14.15;7.63;;;;;;;;;;5024367;28;20085;-71
2021/10/02 12:47:40;;;;;;;20.08;6.78;;;;;;;;;;5009613;28;20050;-71
2021/10/02 12:50:09;;;;;;;12.70;6.63;;;;;;;;;;5001684;28;20568;-71
2021/10/02 12:52:35;;;;;;;9.27;5.40;;;;;;;;;;5003016;28;20160;-70
2021/10/02 12:55:01;;;;;;;15.57;6.47;;;;;;;;;;5008704;28;20128;-71
2021/10/02 12:57:29;;;;;;;12.75;5.28;;;;;;;;;;5039099;28;20088;-71
2021/10/02 12:59:59;;;;;;;25.65;5.63;;;;;;;;;;5025220;28;20049;-71
2021/10/02 13:02:26;;;;;;;10.10;4.70;;;;;;;;;;5025414;28;20119;-71
2021/10/02 13:04:52;;;;;;;13.35;5.03;;;;;;;;;;5008299;28;20105;-71
2021/10/02 13:07:34;;;;;;;10.38;4.78;;;;;;;;;;5020091;28;20041;-81
2021/10/02 13:10:04;;;;;;;11.65;4.55;;;;;;;;;;5018516;28;20424;-71
2021/10/02 13:12:34;;;;;;;8.85;4.03;;;;;;;;;;5023546;28;20077;-71
2021/10/02 13:15:01;;;;;;;10.15;4.53;;;;;;;;;;5025833;28;20545;-71
2021/10/02 13:17:28;;;;;;;11.25;4.40;;;;;;;;;;5030487;28;20393;-71
2021/10/02 13:20:06;;;;;;;10.05;5.50;;;;;;;;;;5024660;28;20564;-71
2021/10/02 13:22:40;;;;;;;13.40;4.68;;;;;;;;;;5028495;28;20045;-73
2021/10/02 13:25:06;;;;;;;9.30;4.53;;;;;;;;;;5027530;28;20048;-71
2021/10/02 13:27:35;;;;;;;25.98;5.57;;;;;;;;;;5027323;28;20068;-71
2021/10/02 13:30:07;;;;;;;11.20;4.85;;;;;;;;;;5027517;28;20409;-71
2021/10/02 13:32:33;;;;;;;10.95;4.72;;;;;;;;;;5018923;28;20041;-71
2021/10/02 13:35:03;;;;;;;10.75;5.55;;;;;;;;;;5025418;28;20128;-71
2021/10/02 13:37:29;;;;;;;10.27;4.93;;;;;;;;;;5041397;28;20088;-71
2021/10/02 13:39:55;;;;;;;9.07;5.30;;;;;;;;;;5021166;28;20049;-71
2021/10/02 13:42:22;;;;;;;14.57;4.93;;;;;;;;;;5021292;28;20053;-71
2021/10/02 13:44:54;;;;;;;11.32;4.95;;;;;;;;;;5039321;28;20049;-71
2021/10/02 13:47:22;;;;;;;12.20;5.22;;;;;;;;;;5026220;28;20056;-71
2021/10/02 13:49:49;;;;;;;15.77;6.03;;;;;;;;;;5008092;28;20045;-70
2021/10/02 13:52:16;;;;;;;14.98;5.95;;;;;;;;;;5024412;28;20087;-71
2021/10/02 13:54:43;;;;;;;26.40;6.88;;;;;;;;;;5025194;28;20052;-73
2021/10/02 13:57:09;;;;;;;11.15;5.53;;;;;;;;;;5024367;28;20498;-70
2021/10/02 13:59:37;;;;;;;13.25;5.38;;;;;;;;;;5024444;28;20490;-70
2021/10/02 14:02:04;;;;;;;12.90;5.97;;;;;;;;;;5022955;28;20397;-70
2021/10/02 14:04:31;;;;;;;13.27;5.63;;;;;;;;;;5028556;28;20621;-69
2021/10/02 14:06:58;;;;;;;12.77;5.65;;;;;;;;;;5028921;28;20080;-69
2021/10/02 14:09:24;;;;;;;12.13;5.63;;;;;;;;;;5028421;28;20174;-69
2021/10/02 14:11:51;;;;;;;13.77;6.13;;;;;;;;;;5028085;28;20064;-69
2021/10/02 14:14:17;;;;;;;11.65;5.90;;;;;;;;;;5029169;28;20113;-69
2021/10/02 14:16:43;;;;;;;13.60;6.10;;;;;;;;;;5034244;28;20516;-69
2021/10/02 14:19:09;;;;;;;18.33;6.28;;;;;;;;;;5026754;28;20049;-69
2021/10/02 14:21:35;;;;;;;15.55;5.72;;;;;;;;;;5028425;28;20069;-69
2021/10/02 14:24:01;;;;;;;12.65;6.65;;;;;;;;;;5031394;28;20048;-69
2021/10/02 14:26:28;;;;;;;12.52;5.38;;;;;;;;;;5031416;28;20053;-69
2021/10/02 14:28:54;;;;;;;14.65;5.45;;;;;;;;;;5031347;28;20045;-69
2021/10/02 14:31:20;;;;;;;13.88;6.15;;;;;;;;;;5046799;28;20041;-69
2021/10/02 14:33:47;;;;;;;10.13;5.85;;;;;;;;;;5032659;28;20056;-69
2021/10/02 14:36:14;;;;;;;15.07;6.35;;;;;;;;;;5031679;28;20041;-69
2021/10/02 14:38:40;;;;;;;10.82;5.05;;;;;;;;;;5030404;28;20068;-69
2021/10/02 14:41:06;;;;;;;10.88;5.43;;;;;;;;;;5047880;28;20485;-69
2021/10/02 14:43:33;;;;;;;14.05;5.80;;;;;;;;;;5032560;28;20112;-69
2021/10/02 14:46:01;;;;;;;13.00;5.88;;;;;;;;;;5030265;28;20550;-69
2021/10/02 14:48:27;;;;;;;11.93;5.28;;;;;;;;;;5029889;28;20378;-69
2021/10/02 14:50:54;;;;;;;12.52;6.05;;;;;;;;;;5032328;28;20059;-69
2021/10/02 14:53:21;;;;;;;11.85;5.75;;;;;;;;;;5029797;28;20095;-69
2021/10/02 14:55:48;;;;;;;11.65;5.30;;;;;;;;;;5029187;28;20137;-69
2021/10/02 14:58:15;;;;;;;9.70;4.70;;;;;;;;;;5028938;28;20056;-68
2021/10/02 15:00:43;;;;;;;14.80;5.40;;;;;;;;;;5031067;28;20452;-69
2021/10/02 15:03:10;;;;;;;11.80;5.05;;;;;;;;;;5032105;28;20053;-69
2021/10/02 15:05:36;;;;;;;7.90;5.00;;;;;;;;;;5029643;28;20083;-69
2021/10/02 15:08:02;;;;;;;13.73;4.72;;;;;;;;;;5031959;28;20116;-69
2021/10/02 15:10:30;;;;;;;9.00;4.35;;;;;;;;;;5032032;28;20044;-69
2021/10/02 15:12:57;;;;;;;8.93;4.85;;;;;;;;;;5030915;28;20397;-69
2021/10/02 15:15:23;;;;;;;13.13;4.57;;;;;;;;;;5031964;28;20158;-69
2021/10/02 15:17:50;;;;;;;12.57;4.97;;;;;;;;;;5030465;28;20106;-69
2021/10/02 15:20:16;;;;;;;12.02;4.80;;;;;;;;;;5029736;28;20158;-69
2021/10/02 15:22:45;;;;;;;12.48;4.80;;;;;;;;;;5030011;28;20037;-69